createdAt,value
2023-04-04T00:01:49.440Z,4.30
2023-04-04T00:06:52.759Z,11.10
2023-04-04T00:11:55.865Z,5.50
2023-04-04T00:16:58.766Z,2.60
2023-04-04T00:22:01.671Z,4.30
2023-04-04T00:27:04.579Z,7.50
2023-04-04T00:32:07.510Z,3.30
2023-04-04T00:37:13.208Z,3.60
2023-04-04T00:42:16.166Z,5.90
2023-04-04T00:47:22.821Z,4.30
2023-04-04T00:52:25.784Z,3.70
2023-04-04T00:57:30.095Z,2.30
2023-04-04T01:02:33.625Z,4.60
2023-04-04T01:07:37.558Z,4.30
2023-04-04T01:12:42.358Z,2.50
2023-04-04T01:17:45.774Z,5.70
2023-04-04T01:22:50.465Z,6.20
2023-04-04T01:27:53.460Z,3.70
2023-04-04T01:33:29.786Z,2.70
2023-04-04T01:38:38.484Z,6.40
2023-04-04T01:43:45.689Z,4.00
2023-04-04T01:48:48.710Z,6.40
2023-04-04T01:53:51.600Z,4.30
2023-04-04T01:58:54.514Z,5.60
2023-04-04T02:03:57.828Z,4.50
2023-04-04T02:09:01.229Z,4.10
2023-04-04T02:14:04.134Z,6.00
2023-04-04T02:19:07.140Z,4.30
2023-04-04T02:24:10.247Z,3.50
2023-04-04T02:29:13.587Z,3.60
2023-04-04T02:34:16.476Z,4.70
2023-04-04T02:39:19.475Z,3.50
2023-04-04T02:44:22.690Z,2.90
2023-04-04T02:49:26.349Z,4.00
2023-04-04T02:54:29.315Z,4.50
2023-04-04T02:59:32.286Z,4.40
2023-04-04T03:04:36.870Z,3.50
2023-04-04T03:09:39.748Z,2.80
2023-04-04T03:14:42.677Z,2.60
2023-04-04T03:19:45.986Z,4.90
2023-04-04T03:24:48.890Z,4.30
2023-04-04T03:29:51.798Z,6.70
2023-04-04T03:34:54.611Z,3.00
2023-04-04T03:39:58.116Z,5.10
2023-04-04T03:45:01.119Z,1.80
2023-04-04T03:50:04.906Z,2.30
2023-04-04T03:55:08.757Z,4.10
2023-04-04T04:00:12.553Z,4.60
2023-04-04T04:05:15.816Z,2.70
2023-04-04T04:10:19.093Z,2.40
2023-04-04T04:15:21.920Z,2.70
2023-04-04T04:20:24.829Z,8.30
2023-04-04T04:25:27.831Z,4.70
2023-04-04T04:30:30.741Z,2.60
2023-04-04T04:35:37.961Z,4.20
2023-04-04T04:40:41.649Z,8.00
2023-04-04T04:45:44.777Z,6.10
2023-04-04T04:50:48.784Z,5.00
2023-04-04T04:55:52.675Z,5.60
2023-04-04T05:00:59.318Z,4.40
2023-04-04T05:06:02.340Z,5.80
2023-04-04T05:11:05.775Z,7.70
2023-04-04T05:16:08.991Z,6.10
2023-04-04T05:21:12.275Z,7.40
2023-04-04T05:26:15.586Z,7.80
2023-04-04T05:31:18.881Z,6.40
2023-04-04T05:36:21.946Z,11.60
2023-04-04T05:41:24.925Z,6.10
2023-04-04T05:46:27.891Z,4.30
2023-04-04T05:51:31.236Z,4.40
2023-04-04T05:56:34.875Z,3.50
2023-04-04T06:01:37.800Z,3.50
2023-04-04T06:06:41.490Z,5.20
2023-04-04T06:11:44.707Z,6.40
2023-04-04T06:16:47.805Z,5.60
2023-04-04T06:21:51.022Z,4.20
2023-04-04T06:26:54.328Z,4.30
2023-04-04T06:31:58.360Z,5.20
2023-04-04T06:37:01.365Z,6.50
2023-04-04T06:42:04.587Z,3.50
2023-04-04T06:47:07.813Z,4.10
2023-04-04T06:52:10.802Z,3.10
2023-04-04T06:57:14.410Z,2.10
2023-04-04T07:02:17.442Z,2.40
2023-04-04T07:07:20.697Z,3.70
2023-04-04T07:12:23.638Z,2.70
2023-04-04T07:17:27.380Z,4.20
2023-04-04T07:22:30.575Z,2.90
2023-04-04T07:27:33.893Z,4.20
2023-04-04T07:32:38.438Z,5.10
2023-04-04T07:37:41.647Z,5.10
2023-04-04T07:42:51.922Z,3.30
2023-04-04T07:47:54.855Z,3.50
2023-04-04T07:52:58.848Z,6.50
2023-04-04T07:58:01.856Z,4.80
2023-04-04T08:03:04.962Z,3.20
2023-04-04T08:08:07.967Z,3.80
2023-04-04T08:13:10.872Z,2.00
2023-04-04T08:18:13.983Z,3.90
2023-04-04T08:23:16.887Z,2.60
2023-04-04T08:28:19.888Z,3.90
2023-04-04T08:33:28.912Z,3.20
2023-04-04T08:38:37.381Z,4.70
2023-04-04T08:43:41.698Z,4.00
2023-04-04T08:48:44.969Z,2.70
2023-04-04T08:53:48.040Z,3.30
2023-04-04T08:58:51.890Z,2.20
2023-04-04T09:03:55.869Z,4.20
2023-04-04T09:08:59.869Z,2.60
2023-04-04T09:14:04.830Z,6.50
2023-04-04T09:19:07.686Z,3.60
2023-04-04T09:24:10.687Z,3.50
2023-04-04T09:29:14.207Z,5.00
2023-04-04T09:34:19.685Z,6.00
2023-04-04T09:39:24.027Z,4.50
2023-04-04T09:44:29.777Z,3.40
2023-04-04T09:49:32.988Z,2.40
2023-04-04T09:54:38.204Z,4.40
2023-04-04T09:59:48.792Z,3.60
2023-04-04T10:05:06.152Z,7.60
2023-04-04T10:10:10.793Z,3.60
2023-04-04T10:15:16.639Z,5.10
2023-04-04T10:20:21.105Z,7.30
2023-04-04T10:25:24.600Z,5.20
2023-04-04T10:30:27.638Z,3.70
2023-04-04T10:35:31.788Z,3.90
2023-04-04T10:40:40.506Z,4.80
2023-04-04T10:45:45.713Z,4.20
2023-04-04T10:50:49.309Z,4.00
2023-04-04T10:55:53.204Z,5.10
2023-04-04T11:00:56.977Z,6.70
2023-04-04T11:06:02.278Z,3.30
2023-04-04T11:11:09.677Z,2.80
2023-04-04T11:16:21.717Z,7.20
2023-04-04T11:21:32.035Z,6.90
2023-04-04T11:26:36.814Z,6.40
2023-04-04T11:31:43.890Z,6.40
2023-04-04T11:36:52.361Z,3.30
2023-04-04T11:42:15.194Z,5.10
2023-04-04T11:47:20.701Z,4.00
2023-04-04T11:52:26.738Z,2.80
2023-04-04T11:57:29.639Z,4.30
2023-04-04T12:02:35.002Z,3.20
2023-04-04T12:07:38.162Z,4.80
2023-04-04T12:12:42.339Z,4.20
2023-04-04T12:17:46.607Z,3.10
2023-04-04T12:22:51.979Z,4.40
2023-04-04T12:27:56.445Z,3.20
2023-04-04T12:32:59.775Z,3.90
2023-04-04T12:38:07.494Z,6.10
2023-04-04T12:43:17.618Z,4.70
2023-04-04T12:48:29.925Z,5.80
2023-04-04T12:53:33.423Z,5.80
2023-04-04T12:58:37.829Z,7.20
2023-04-04T13:03:41.920Z,3.10
2023-04-04T13:08:55.380Z,3.50
2023-04-04T13:14:03.075Z,6.60
2023-04-04T13:19:06.891Z,4.70
2023-04-04T13:24:09.911Z,2.70
2023-04-04T13:29:13.013Z,2.30
2023-04-04T13:34:16.062Z,3.30
2023-04-04T13:39:19.803Z,3.90
2023-04-04T13:44:23.026Z,5.90
2023-04-04T13:49:27.286Z,6.00
2023-04-04T13:54:30.194Z,2.40
2023-04-04T13:59:33.184Z,2.80
2023-04-04T14:04:36.624Z,5.50
2023-04-04T14:09:39.976Z,6.70
2023-04-04T14:14:42.837Z,4.00
2023-04-04T14:19:45.840Z,4.90
2023-04-04T14:24:48.755Z,4.60
2023-04-04T14:29:51.668Z,6.00
2023-04-04T14:34:54.674Z,3.50
2023-04-04T14:39:57.870Z,3.30
2023-04-04T14:45:05.380Z,4.10
2023-04-04T14:50:09.288Z,5.30
2023-04-04T14:55:12.516Z,3.30
2023-04-04T15:00:20.618Z,2.50
2023-04-04T15:05:25.260Z,3.90
2023-04-04T15:10:28.716Z,3.20
2023-04-04T15:15:32.761Z,7.80
2023-04-04T15:20:40.100Z,2.10
2023-04-04T15:25:43.462Z,2.50
2023-04-04T15:30:46.464Z,3.80
2023-04-04T15:35:49.364Z,5.90
2023-04-04T15:40:52.374Z,3.80
2023-04-04T15:45:55.302Z,8.10
2023-04-04T15:51:02.720Z,2.70
2023-04-04T15:56:06.149Z,4.10
2023-04-04T16:01:09.345Z,4.20
2023-04-04T16:06:13.344Z,4.10
2023-04-04T16:11:16.266Z,4.80
2023-04-04T16:16:19.231Z,4.50
2023-04-04T16:21:22.365Z,4.80
2023-04-04T16:26:25.172Z,3.70
2023-04-04T16:31:28.750Z,3.40
2023-04-04T16:36:32.038Z,2.20
2023-04-04T16:41:35.027Z,4.00
2023-04-04T16:46:37.934Z,3.50
2023-04-04T16:51:41.020Z,5.10
2023-04-04T16:56:43.929Z,7.10
2023-04-04T17:01:49.214Z,7.20
2023-04-04T17:06:52.190Z,6.80
2023-04-04T17:11:57.281Z,5.80
2023-04-04T17:17:00.803Z,7.70
2023-04-04T17:22:03.943Z,12.40
2023-04-04T17:27:07.179Z,4.90
2023-04-04T17:32:10.253Z,5.10
2023-04-04T17:37:13.507Z,7.00
2023-04-04T17:42:16.447Z,7.20
2023-04-04T17:47:19.721Z,5.80
2023-04-04T17:52:22.833Z,5.50
2023-04-04T17:57:25.941Z,4.40
2023-04-04T18:02:28.848Z,5.90
2023-04-04T18:07:31.868Z,5.70
2023-04-04T18:12:35.878Z,7.30
2023-04-04T18:17:40.299Z,8.00
2023-04-04T18:22:43.224Z,6.90
2023-04-04T18:27:46.239Z,8.10
2023-04-04T18:32:50.557Z,8.30
2023-04-04T18:37:53.473Z,5.80
2023-04-04T18:42:56.668Z,8.20
2023-04-04T18:48:00.003Z,7.60
2023-04-04T18:53:03.105Z,8.40
2023-04-04T18:58:06.130Z,6.30
2023-04-04T19:03:11.699Z,5.30
2023-04-04T19:08:17.458Z,5.00
2023-04-04T19:13:20.457Z,9.90
2023-04-04T19:18:23.885Z,8.30
2023-04-04T19:23:28.337Z,6.80
2023-04-04T19:28:31.325Z,12.90
2023-04-04T19:33:34.343Z,12.40
2023-04-04T19:38:40.006Z,13.90
2023-04-04T19:43:45.662Z,13.50
2023-04-04T19:48:51.270Z,12.10
2023-04-04T19:53:56.387Z,12.80
2023-04-04T19:59:06.172Z,10.90
2023-04-04T20:04:10.629Z,7.70
2023-04-04T20:09:34.869Z,7.70
2023-04-04T20:14:38.950Z,11.60
2023-04-04T20:19:41.831Z,13.20
2023-04-04T20:24:47.258Z,13.30
2023-04-04T20:29:54.452Z,21.00
2023-04-04T20:34:57.300Z,21.60
2023-04-04T20:40:13.417Z,19.90
2023-04-04T20:45:35.230Z,16.80
2023-04-04T20:50:45.811Z,21.10
2023-04-04T20:55:50.742Z,20.50
2023-04-04T21:00:54.314Z,23.70
2023-04-04T21:06:02.833Z,20.00
2023-04-04T21:11:07.096Z,21.00
2023-04-04T21:16:13.195Z,13.70
2023-04-04T21:21:20.245Z,13.00
2023-04-04T21:26:26.668Z,16.20
2023-04-04T21:31:39.145Z,11.90
2023-04-04T21:36:43.115Z,7.10
2023-04-04T21:41:46.645Z,6.90
2023-04-04T21:46:49.751Z,8.70
2023-04-04T21:51:52.649Z,10.70
2023-04-04T21:56:55.559Z,9.80
2023-04-04T22:01:58.495Z,11.60
2023-04-04T22:07:01.771Z,8.50
2023-04-04T22:12:05.439Z,9.50
2023-04-04T22:17:08.405Z,12.00
2023-04-04T22:22:11.398Z,8.50
2023-04-04T22:27:14.916Z,10.70
2023-04-04T22:32:17.823Z,9.60
2023-04-04T22:37:22.365Z,9.20
2023-04-04T22:42:25.581Z,10.40
2023-04-04T22:47:29.659Z,9.30
2023-04-04T22:52:32.734Z,8.50
2023-04-04T22:57:35.630Z,8.80
2023-04-04T23:02:39.870Z,8.10
2023-04-04T23:07:44.068Z,8.70
2023-04-04T23:12:50.397Z,13.30
2023-04-04T23:17:53.740Z,8.30
2023-04-04T23:22:56.702Z,10.90
2023-04-04T23:27:59.604Z,15.90
2023-04-04T23:33:02.581Z,10.30
2023-04-04T23:38:05.523Z,14.50
2023-04-04T23:43:08.412Z,14.90
2023-04-04T23:48:11.528Z,12.30
2023-04-04T23:53:14.541Z,11.30
2023-04-04T23:58:17.703Z,10.50
